createdAt,value
2018-12-23T00:01:39.931Z,87.38
2018-12-23T00:04:07.499Z,87.80
2018-12-23T00:06:35.046Z,87.67
2018-12-23T00:09:04.253Z,87.31
2018-12-23T00:11:31.793Z,87.29
2018-12-23T00:14:00.345Z,87.37
2018-12-23T00:16:27.882Z,87.27
2018-12-23T00:18:55.466Z,87.03
2018-12-23T00:21:23.035Z,87.24
2018-12-23T00:23:50.862Z,87.39
2018-12-23T00:26:18.404Z,87.38
2018-12-23T00:28:45.926Z,87.29
2018-12-23T00:31:13.482Z,87.18
2018-12-23T00:33:41.036Z,87.30
2018-12-23T00:36:08.568Z,87.27
2018-12-23T00:38:36.120Z,87.34
2018-12-23T00:41:03.696Z,87.57
2018-12-23T00:43:31.266Z,87.38
2018-12-23T00:45:58.795Z,88.03
2018-12-23T00:48:26.611Z,87.93
2018-12-23T00:50:54.120Z,88.30
2018-12-23T00:53:21.661Z,88.13
2018-12-23T00:55:49.191Z,88.09
2018-12-23T00:58:16.845Z,88.11
2018-12-23T01:00:44.552Z,88.28
2018-12-23T01:03:12.110Z,88.43
2018-12-23T01:05:39.646Z,88.39
2018-12-23T01:08:07.228Z,88.88
2018-12-23T01:10:35.013Z,89.08
2018-12-23T01:13:02.569Z,89.39
2018-12-23T01:15:30.141Z,89.68
2018-12-23T01:17:57.733Z,89.58
2018-12-23T01:20:25.259Z,89.80
2018-12-23T01:22:52.801Z,89.70
2018-12-23T01:25:20.353Z,89.64
2018-12-23T01:27:47.886Z,89.54
2018-12-23T01:30:15.441Z,89.22
2018-12-23T01:32:42.973Z,89.31
2018-12-23T01:35:10.580Z,89.18
2018-12-23T01:37:38.102Z,89.24
2018-12-23T01:40:06.268Z,89.52
2018-12-23T01:42:33.821Z,89.87
2018-12-23T01:45:02.069Z,89.95
2018-12-23T01:47:29.603Z,90.11
2018-12-23T01:49:57.141Z,90.17
2018-12-23T01:52:24.677Z,90.08
2018-12-23T01:54:53.645Z,89.96
2018-12-23T01:57:21.386Z,89.95
2018-12-23T01:59:48.922Z,90.08
2018-12-23T02:02:16.485Z,90.05
2018-12-23T02:04:43.990Z,90.18
2018-12-23T02:07:11.537Z,89.79
2018-12-23T02:09:39.140Z,89.62
2018-12-23T02:12:06.665Z,89.86
2018-12-23T02:14:34.187Z,89.99
2018-12-23T02:17:02.057Z,89.74
2018-12-23T02:19:29.592Z,89.53
2018-12-23T02:21:57.135Z,89.23
2018-12-23T02:24:24.785Z,89.38
2018-12-23T02:26:52.327Z,89.47
2018-12-23T02:29:19.890Z,89.28
2018-12-23T02:31:47.425Z,88.53
2018-12-23T02:34:14.953Z,88.89
2018-12-23T02:36:42.504Z,88.62
2018-12-23T02:39:10.030Z,88.76
2018-12-23T02:41:37.581Z,88.77
2018-12-23T02:44:05.097Z,88.90
2018-12-23T02:46:32.701Z,88.93
2018-12-23T02:49:00.265Z,89.00
2018-12-23T02:51:27.781Z,89.14
2018-12-23T02:53:55.334Z,89.14
2018-12-23T02:56:22.855Z,89.48
2018-12-23T02:58:50.432Z,89.34
2018-12-23T03:01:17.985Z,89.69
2018-12-23T03:03:45.508Z,89.50
2018-12-23T03:06:13.654Z,89.47
2018-12-23T03:08:41.217Z,89.49
2018-12-23T03:11:08.812Z,89.20
2018-12-23T03:13:36.427Z,89.10
2018-12-23T03:16:04.054Z,89.02
2018-12-23T03:18:31.571Z,89.10
2018-12-23T03:20:59.247Z,89.12
2018-12-23T03:23:26.789Z,89.24
2018-12-23T03:25:54.335Z,88.91
2018-12-23T03:28:21.871Z,88.91
2018-12-23T03:30:49.441Z,88.55
2018-12-23T03:33:16.981Z,88.42
2018-12-23T03:35:44.482Z,88.12
2018-12-23T03:38:12.169Z,88.15
2018-12-23T03:40:39.712Z,88.32
2018-12-23T03:43:07.462Z,88.16
2018-12-23T03:45:34.999Z,88.11
2018-12-23T03:48:02.530Z,87.98
2018-12-23T03:50:30.046Z,87.62
2018-12-23T03:52:57.593Z,87.46
2018-12-23T03:55:25.112Z,87.51
2018-12-23T03:57:52.823Z,87.34
2018-12-23T04:00:20.331Z,87.35
2018-12-23T04:02:47.880Z,87.02
2018-12-23T04:05:15.435Z,87.21
2018-12-23T04:07:42.976Z,87.50
2018-12-23T04:10:10.505Z,87.55
2018-12-23T04:12:38.059Z,87.77
2018-12-23T04:15:05.727Z,87.52
2018-12-23T04:17:33.268Z,87.72
2018-12-23T04:20:01.098Z,87.52
2018-12-23T04:22:29.025Z,87.77
2018-12-23T04:24:56.525Z,87.43
2018-12-23T04:27:24.062Z,87.34
2018-12-23T04:29:51.586Z,87.02
2018-12-23T04:32:19.095Z,86.96
2018-12-23T04:34:46.937Z,87.16
2018-12-23T04:37:14.468Z,87.02
2018-12-23T04:39:41.975Z,87.42
2018-12-23T04:42:09.806Z,87.00
2018-12-23T04:44:37.359Z,86.59
2018-12-23T04:47:05.000Z,86.69
2018-12-23T04:49:32.921Z,86.84
2018-12-23T04:52:00.765Z,86.79
2018-12-23T04:54:28.350Z,86.85
2018-12-23T04:56:55.874Z,86.43
2018-12-23T04:59:23.449Z,86.28
2018-12-23T05:01:51.035Z,86.24
2018-12-23T05:04:18.555Z,86.20
2018-12-23T05:06:46.098Z,86.15
2018-12-23T05:09:13.660Z,86.66
2018-12-23T05:11:41.240Z,86.61
2018-12-23T05:14:08.749Z,86.37
2018-12-23T05:16:36.282Z,87.02
2018-12-23T05:19:03.788Z,87.05
2018-12-23T05:21:31.337Z,86.80
2018-12-23T05:23:58.850Z,86.65
2018-12-23T05:26:26.397Z,87.21
2018-12-23T05:28:53.914Z,87.07
2018-12-23T05:31:21.462Z,87.18
2018-12-23T05:33:49.385Z,87.23
2018-12-23T05:36:16.906Z,87.16
2018-12-23T05:38:44.504Z,87.35
2018-12-23T05:41:12.033Z,87.31
2018-12-23T05:43:39.589Z,87.46
2018-12-23T05:46:07.386Z,87.79
2018-12-23T05:48:35.209Z,87.92
2018-12-23T05:51:02.768Z,88.13
2018-12-23T05:53:30.339Z,88.00
2018-12-23T05:55:57.314Z,87.79
2018-12-23T05:58:24.810Z,87.77
2018-12-23T06:00:52.366Z,87.44
2018-12-23T06:03:19.899Z,87.35
2018-12-23T06:06:34.595Z,87.17
2018-12-23T06:09:21.691Z,87.47
2018-12-23T06:12:08.853Z,87.48
2018-12-23T06:14:55.864Z,87.29
2018-12-23T06:17:43.004Z,87.07
2018-12-23T06:20:30.111Z,86.95
2018-12-23T06:26:10.719Z,87.23
2018-12-23T06:28:57.783Z,87.00
2018-12-23T06:31:44.802Z,87.30
2018-12-23T06:34:31.935Z,87.14
2018-12-23T06:37:19.123Z,87.51
2018-12-23T06:42:59.515Z,87.73
2018-12-23T07:21:20.800Z,87.55
2018-12-23T13:57:43.517Z,86.80
2018-12-23T14:00:30.560Z,86.96
2018-12-23T14:06:10.967Z,87.36
2018-12-23T14:08:59.072Z,87.18
2018-12-23T14:11:46.244Z,87.36
2018-12-23T14:14:33.505Z,87.51
2018-12-23T14:17:20.646Z,87.90
2018-12-23T14:20:07.750Z,87.87
2018-12-23T14:22:54.885Z,88.16
2018-12-23T14:28:35.244Z,88.06
2018-12-23T14:31:22.618Z,87.96
2018-12-23T14:34:09.682Z,88.53
2018-12-23T14:36:56.739Z,88.69
2018-12-23T14:39:43.801Z,88.94
2018-12-23T18:08:06.915Z,95.12
2018-12-23T19:58:10.704Z,94.64
2018-12-23T20:00:57.938Z,94.44
2018-12-23T20:06:38.322Z,94.66
2018-12-23T20:09:25.488Z,94.79
2018-12-23T20:12:12.582Z,94.77
2018-12-23T20:14:59.727Z,94.67
2018-12-23T20:17:46.800Z,94.63
2018-12-23T20:20:33.961Z,94.47
2018-12-23T20:23:21.296Z,94.62
2018-12-23T20:26:08.444Z,94.55
2018-12-23T20:31:48.836Z,94.56
2018-12-23T20:34:35.893Z,94.49
2018-12-23T20:37:22.955Z,94.50
2018-12-23T20:40:10.045Z,94.61
2018-12-23T20:57:59.823Z,95.36
2018-12-23T21:00:46.931Z,95.47
2018-12-23T21:03:34.015Z,95.31
2018-12-23T21:06:21.078Z,95.21
2018-12-23T21:09:08.451Z,95.14
2018-12-23T21:11:55.581Z,95.17
2018-12-23T21:14:42.727Z,94.77
2018-12-23T21:17:29.767Z,94.58
2018-12-23T21:20:16.875Z,94.62
2018-12-23T21:23:04.076Z,94.88
